Portada
METAR-TAF:

METAR-TAF

Aeroports :

Ipoh, Malàisia

latitud: 04-34-09N, longitud: 101-05-35E, altitud: 40 m

Observació

L'informe es va fer fa 45 minuts, a les 23:00 UTC
Vent 1 kt amb direcció variable
Temperatura 25°C
Humitat 94%
Pressió 1010 hPa
Visibilitat: 8000 m
Escasses núvols a una alçada de 3000 ft

METAR: WMKI 182300Z VRB01KT 8000 FEW030 25/24 Q1010

Hora: 07:45 (23:45 UTC)

Pronòstic

L'informe es va fer fa 45 minuts, a les 23:00 UTC
Pronòstic vàlid del 19 a les 00 UTC al 20 a les 00 UTC
Vent 5 kt del Nord-Est
Visibilitat 10 km o més
Escasses núvols a una alçada de 2000 ft
Evolucionant progressivament
l' 19 a les 07 UTC al 19 a les 09 UTC
Vent 10 kt del Sud-Oest
Escasses núvols a una alçada de 1700 ft, Cumulonimbus.
Temporalment
l' 19 a les 12 UTC al 19 a les 16 UTC
Visibilitat: 5000 m
Escasses núvols a una alçada de 1700 ft, Cumulonimbus.
tempesta, pluja

TAF: WMKI 182300Z 1900/2000 04005KT 9999 FEW020 BECMG 1907/1909 23010KT FEW017CB TEMPO 1912/1916 5000 TSRA FEW017CB

Observacions i pronòstics meteorològics de més de 4000 aeroports (METAR i TAF).

Les estacions disponibles són els punts grocs i vermells al mapa.

Posi el ratolí al punt desitjat per veure el nom de l'estació.

Feu clic per veure les observacions i els pronòstics meteorològics.

Per canviar el mapa: feu clic els botons verds amb una creu de color negre per apropar; al botó verd amb un guió per allunyar la imatge; o en les fletxes verdes per a mapes adjacents.


METAR-TAF: